createdAt,value
2022-12-01T00:00:23.439Z,1023
2022-12-01T00:01:23.473Z,1023
2022-12-01T00:02:23.579Z,1023
2022-12-01T00:03:23.552Z,1023.1
2022-12-01T00:04:23.482Z,1023
2022-12-01T00:05:23.448Z,1023
2022-12-01T00:06:23.451Z,1023
2022-12-01T00:07:23.465Z,1023
2022-12-01T00:08:23.452Z,1023
2022-12-01T00:09:23.528Z,1023
2022-12-01T00:10:23.431Z,1023
2022-12-01T00:11:23.451Z,1023
2022-12-01T00:12:23.430Z,1023
2022-12-01T00:13:23.440Z,1023
2022-12-01T00:14:23.431Z,1023
2022-12-01T00:15:23.443Z,1023
2022-12-01T00:16:23.498Z,1023
2022-12-01T00:17:23.453Z,1023
2022-12-01T00:18:23.452Z,1022.9
2022-12-01T00:19:23.438Z,1022.9
2022-12-01T00:20:23.541Z,1023
2022-12-01T00:21:23.466Z,1023
2022-12-01T00:22:23.455Z,1022.9
2022-12-01T00:23:23.438Z,1022.9
2022-12-01T00:24:23.450Z,1022.9
2022-12-01T00:25:23.437Z,1022.9
2022-12-01T00:26:23.445Z,1022.9
2022-12-01T00:27:23.449Z,1022.9
2022-12-01T00:28:23.432Z,1022.9
2022-12-01T00:29:23.436Z,1022.9
2022-12-01T00:30:23.455Z,1022.9
2022-12-01T00:31:23.573Z,1022.9
2022-12-01T00:32:23.467Z,1022.9
2022-12-01T00:33:23.445Z,1022.9
2022-12-01T00:34:23.449Z,1022.9
2022-12-01T00:35:23.454Z,1022.9
2022-12-01T00:36:23.452Z,1023
2022-12-01T00:37:23.449Z,1022.9
2022-12-01T00:38:23.488Z,1023
2022-12-01T00:39:23.448Z,1023
2022-12-01T00:40:23.457Z,1022.9
2022-12-01T00:41:23.456Z,1023
2022-12-01T00:42:23.473Z,1022.9
2022-12-01T00:43:23.474Z,1022.9
2022-12-01T00:44:23.440Z,1022.9
2022-12-01T00:45:23.472Z,1023
2022-12-01T00:46:23.513Z,1022.9
2022-12-01T00:47:23.449Z,1022.9
2022-12-01T00:48:23.443Z,1023
2022-12-01T00:49:23.447Z,1023
2022-12-01T00:50:23.439Z,1023
2022-12-01T00:52:23.457Z,1022.9
2022-12-01T00:53:23.457Z,1023
2022-12-01T00:54:23.448Z,1023
2022-12-01T00:55:23.481Z,1023
2022-12-01T00:56:23.450Z,1023
2022-12-01T00:57:23.463Z,1023
2022-12-01T00:58:23.471Z,1023
2022-12-01T00:59:23.449Z,1023
2022-12-01T01:00:23.470Z,1023
2022-12-01T01:01:23.602Z,1023
2022-12-01T01:02:23.497Z,1023
2022-12-01T01:03:23.473Z,1023
2022-12-01T01:04:23.458Z,1023
2022-12-01T01:05:23.478Z,1023
2022-12-01T01:06:23.454Z,1023
2022-12-01T01:07:23.472Z,1023
2022-12-01T01:08:23.451Z,1023
2022-12-01T01:09:23.469Z,1023
2022-12-01T01:10:23.456Z,1023.1
2022-12-01T01:11:23.455Z,1023
2022-12-01T01:12:23.501Z,1023
2022-12-01T01:13:23.459Z,1023
2022-12-01T01:14:23.474Z,1023
2022-12-01T01:15:23.456Z,1023
2022-12-01T01:16:23.526Z,1023
2022-12-01T01:17:23.450Z,1023.1
2022-12-01T01:18:23.451Z,1023.1
2022-12-01T01:19:23.454Z,1023.1
2022-12-01T01:20:23.470Z,1023.1
2022-12-01T01:21:23.458Z,1023.1
2022-12-01T01:22:23.470Z,1023.1
2022-12-01T01:23:23.464Z,1023.2
2022-12-01T01:24:23.481Z,1023.2
2022-12-01T01:25:23.466Z,1023.2
2022-12-01T01:26:23.462Z,1023.2
2022-12-01T01:27:23.478Z,1023.2
2022-12-01T01:28:23.461Z,1023.2
2022-12-01T01:29:23.452Z,1023.2
2022-12-01T01:30:23.568Z,1023.1
2022-12-01T01:31:23.493Z,1023.2
2022-12-01T01:32:23.455Z,1023.2
2022-12-01T01:33:23.454Z,1023.2
2022-12-01T01:34:23.523Z,1023.2
2022-12-01T01:35:23.469Z,1023.2
2022-12-01T01:36:23.486Z,1023.2
2022-12-01T01:37:23.505Z,1023.2
2022-12-01T01:38:23.480Z,1023.2
2022-12-01T01:39:23.481Z,1023.2
2022-12-01T01:40:23.476Z,1023.2
2022-12-01T01:41:23.470Z,1023.2
2022-12-01T01:42:23.474Z,1023.2
2022-12-01T01:43:23.467Z,1023.2
2022-12-01T01:44:23.470Z,1023.3
2022-12-01T01:45:23.465Z,1023.2
2022-12-01T01:46:23.533Z,1023.3
2022-12-01T01:47:23.464Z,1023.2
2022-12-01T01:48:23.464Z,1023.3
2022-12-01T01:49:23.476Z,1023.3
2022-12-01T01:50:23.472Z,1023.3
2022-12-01T01:51:23.478Z,1023.3
2022-12-01T01:52:23.453Z,1023.3
2022-12-01T01:53:23.471Z,1023.3
2022-12-01T01:54:23.469Z,1023.3
2022-12-01T01:55:23.473Z,1023.3
2022-12-01T01:56:23.490Z,1023.3
2022-12-01T01:57:23.479Z,1023.3
2022-12-01T01:58:23.464Z,1023.3
2022-12-01T01:59:23.469Z,1023.3
2022-12-01T02:00:23.475Z,1023.3
2022-12-01T02:01:23.593Z,1023.3
2022-12-01T02:02:23.566Z,1023.3
2022-12-01T02:03:23.470Z,1023.3
2022-12-01T02:04:23.480Z,1023.3
2022-12-01T02:05:23.488Z,1023.3
2022-12-01T02:06:23.465Z,1023.3
2022-12-01T02:07:23.514Z,1023.3
2022-12-01T02:08:23.482Z,1023.3
2022-12-01T02:09:23.476Z,1023.3
2022-12-01T02:10:23.463Z,1023.3
2022-12-01T02:11:23.470Z,1023.3
2022-12-01T02:12:23.465Z,1023.3
2022-12-01T02:13:23.478Z,1023.3
2022-12-01T02:14:23.467Z,1023.2
2022-12-01T02:15:23.472Z,1023.3
2022-12-01T02:16:23.502Z,1023.3
2022-12-01T02:17:23.469Z,1023.3
2022-12-01T02:18:23.473Z,1023.3
2022-12-01T02:19:23.468Z,1023.3
2022-12-01T02:20:23.484Z,1023.3
2022-12-01T02:21:23.486Z,1023.3
2022-12-01T02:22:23.473Z,1023.3
2022-12-01T02:23:23.464Z,1023.2
2022-12-01T02:24:23.469Z,1023.2
2022-12-01T02:25:23.466Z,1023.3
2022-12-01T02:26:23.475Z,1023.3
2022-12-01T02:27:23.470Z,1023.3
2022-12-01T02:28:23.470Z,1023.3
2022-12-01T02:29:23.492Z,1023.3
2022-12-01T02:30:23.686Z,1023.3
2022-12-01T02:31:23.525Z,1023.3
2022-12-01T02:32:23.486Z,1023.3
2022-12-01T02:33:23.472Z,1023.3
2022-12-01T02:34:23.479Z,1023.2
2022-12-01T02:35:23.543Z,1023.3
2022-12-01T02:36:23.494Z,1023.2
2022-12-01T02:37:23.498Z,1023.2
2022-12-01T02:38:23.473Z,1023.3
2022-12-01T02:39:23.473Z,1023.3
2022-12-01T02:40:23.541Z,1023.3
2022-12-01T02:41:23.480Z,1023.3
2022-12-01T02:42:23.490Z,1023.3
2022-12-01T02:43:23.488Z,1023.2
2022-12-01T02:44:23.476Z,1023.2
2022-12-01T02:45:23.479Z,1023.3
2022-12-01T02:46:23.572Z,1023.2
2022-12-01T02:47:23.484Z,1023.2
2022-12-01T02:48:23.463Z,1023.2
2022-12-01T02:49:23.469Z,1023.2
2022-12-01T02:50:23.522Z,1023.2
2022-12-01T02:51:23.495Z,1023.2
2022-12-01T02:52:23.523Z,1023.2
2022-12-01T02:53:23.465Z,1023.2
2022-12-01T02:54:23.476Z,1023.2
2022-12-01T02:55:23.502Z,1023.2
2022-12-01T02:56:23.530Z,1023.2
2022-12-01T02:57:23.477Z,1023.3
2022-12-01T02:58:23.472Z,1023.2
2022-12-01T02:59:23.473Z,1023.2
2022-12-01T03:00:23.484Z,1023.2
2022-12-01T03:01:23.523Z,1023.2
2022-12-01T03:02:23.497Z,1023.2
2022-12-01T03:03:23.474Z,1023.3
2022-12-01T03:04:23.480Z,1023.2
2022-12-01T03:05:23.479Z,1023.2
2022-12-01T03:06:23.475Z,1023.3
2022-12-01T03:07:23.557Z,1023.3
2022-12-01T03:08:23.473Z,1023.3
2022-12-01T03:09:23.503Z,1023.3
2022-12-01T03:10:23.498Z,1023.2
2022-12-01T03:11:23.484Z,1023.3
2022-12-01T03:12:23.483Z,1023.2
2022-12-01T03:13:23.496Z,1023.3
2022-12-01T03:14:23.503Z,1023.2
2022-12-01T03:16:23.544Z,1023.3
2022-12-01T03:17:23.488Z,1023.3
2022-12-01T03:18:23.488Z,1023.3
2022-12-01T03:19:23.497Z,1023.2
2022-12-01T03:20:23.469Z,1023.2
2022-12-01T03:21:23.468Z,1023.2
2022-12-01T03:22:23.476Z,1023.2
2022-12-01T03:23:23.484Z,1023.2
2022-12-01T03:24:23.481Z,1023.2
2022-12-01T03:25:23.480Z,1023.2
2022-12-01T03:26:23.500Z,1023.3
2022-12-01T03:27:23.494Z,1023.2
2022-12-01T03:28:23.481Z,1023.3
2022-12-01T03:29:23.479Z,1023.2
2022-12-01T03:30:23.505Z,1023.3
2022-12-01T03:31:23.594Z,1023.3
2022-12-01T03:32:23.482Z,1023.3
2022-12-01T03:33:23.479Z,1023.2
2022-12-01T03:34:23.481Z,1023.3
2022-12-01T03:35:23.514Z,1023.3
2022-12-01T03:36:23.483Z,1023.3
2022-12-01T03:37:23.474Z,1023.3
2022-12-01T03:38:23.510Z,1023.3
2022-12-01T03:39:23.485Z,1023.3
2022-12-01T03:40:23.477Z,1023.3
2022-12-01T03:41:23.543Z,1023.2
2022-12-01T03:42:23.486Z,1023.3
2022-12-01T03:43:23.487Z,1023.3
2022-12-01T03:44:23.480Z,1023.3
2022-12-01T03:45:23.475Z,1023.3
2022-12-01T03:46:23.609Z,1023.3
2022-12-01T03:47:23.486Z,1023.3
2022-12-01T03:48:23.487Z,1023.4
2022-12-01T03:49:23.475Z,1023.4
2022-12-01T03:50:23.488Z,1023.4
2022-12-01T03:51:23.484Z,1023.3
2022-12-01T03:52:23.481Z,1023.4
2022-12-01T03:53:23.490Z,1023.4
2022-12-01T03:54:23.484Z,1023.4
2022-12-01T03:55:23.479Z,1023.4
2022-12-01T03:56:23.484Z,1023.4
2022-12-01T03:57:23.485Z,1023.4
2022-12-01T03:58:23.518Z,1023.4
2022-12-01T03:59:23.537Z,1023.4
2022-12-01T04:00:23.487Z,1023.4
2022-12-01T04:01:23.524Z,1023.4
2022-12-01T04:02:23.545Z,1023.4
2022-12-01T04:03:23.489Z,1023.4
2022-12-01T04:04:23.495Z,1023.3
2022-12-01T04:06:23.485Z,1023.4
2022-12-01T04:07:23.590Z,1023.4
2022-12-01T04:08:23.509Z,1023.4
2022-12-01T04:09:23.532Z,1023.3
2022-12-01T04:11:26.096Z,1023.4
2022-12-01T04:12:23.492Z,1023.4
2022-12-01T04:13:23.498Z,1023.4
2022-12-01T04:14:23.497Z,1023.4
2022-12-01T04:15:23.521Z,1023.3
2022-12-01T04:16:23.554Z,1023.3
2022-12-01T04:17:23.497Z,1023.3
2022-12-01T04:18:23.492Z,1023.3
2022-12-01T04:19:23.491Z,1023.3
2022-12-01T04:20:23.501Z,1023.3
2022-12-01T04:21:23.492Z,1023.3
2022-12-01T04:22:23.490Z,1023.3
2022-12-01T04:23:23.494Z,1023.3
2022-12-01T04:24:23.492Z,1023.3
2022-12-01T04:25:23.495Z,1023.3
2022-12-01T04:26:23.497Z,1023.3
2022-12-01T04:27:23.495Z,1023.3
2022-12-01T04:28:23.496Z,1023.3
2022-12-01T04:29:23.488Z,1023.4
2022-12-01T04:30:23.501Z,1023.3
2022-12-01T04:31:23.580Z,1023.4
2022-12-01T04:32:23.527Z,1023.4
2022-12-01T04:33:23.504Z,1023.4
2022-12-01T04:34:23.490Z,1023.3
2022-12-01T04:35:23.487Z,1023.3
2022-12-01T04:36:23.496Z,1023.3
2022-12-01T04:37:23.495Z,1023.3
2022-12-01T04:38:27.483Z,1023.3
2022-12-01T04:39:23.491Z,1023.3
2022-12-01T04:40:23.527Z,1023.3
2022-12-01T04:41:23.491Z,1023.3
2022-12-01T04:42:23.496Z,1023.3
2022-12-01T04:43:23.500Z,1023.3
2022-12-01T04:44:23.511Z,1023.3
2022-12-01T04:45:23.490Z,1023.3
2022-12-01T04:46:23.523Z,1023.3
2022-12-01T04:47:23.493Z,1023.3
2022-12-01T04:48:23.497Z,1023.3
2022-12-01T04:49:23.502Z,1023.3
2022-12-01T04:50:23.492Z,1023.3
2022-12-01T04:51:23.518Z,1023.3
2022-12-01T04:52:23.504Z,1023.3
2022-12-01T04:53:23.492Z,1023.3
2022-12-01T04:54:23.495Z,1023.3
2022-12-01T04:55:23.510Z,1023.3
2022-12-01T04:56:23.504Z,1023.3
2022-12-01T04:59:23.496Z,1023.3
2022-12-01T05:00:23.509Z,1023.2
2022-12-01T05:01:23.581Z,1023.2
2022-12-01T05:02:23.545Z,1023.2
2022-12-01T05:03:23.498Z,1023.2
2022-12-01T05:04:23.497Z,1023.3
2022-12-01T05:05:23.509Z,1023.2
2022-12-01T05:06:23.537Z,1023.2
2022-12-01T05:07:23.534Z,1023.3
2022-12-01T05:08:23.494Z,1023.3
2022-12-01T05:10:23.528Z,1023.2
2022-12-01T05:11:23.584Z,1023.2
2022-12-01T05:12:23.511Z,1023.2
2022-12-01T05:13:23.497Z,1023.2
2022-12-01T05:14:23.509Z,1023.2
2022-12-01T05:15:23.504Z,1023.2
2022-12-01T05:16:23.585Z,1023.2
2022-12-01T05:17:23.497Z,1023.2
2022-12-01T05:19:23.512Z,1023.2
2022-12-01T05:20:23.500Z,1023.2
2022-12-01T05:21:23.511Z,1023.3
2022-12-01T05:22:42.782Z,1023.3
2022-12-01T05:24:23.546Z,1023.3
2022-12-01T05:25:23.524Z,1023.3
2022-12-01T05:26:23.504Z,1023.3
2022-12-01T05:28:23.500Z,1023.3
2022-12-01T05:29:23.510Z,1023.3
2022-12-01T05:30:28.338Z,1023.3
2022-12-01T05:32:23.514Z,1023.3
2022-12-01T05:33:23.508Z,1023.3
2022-12-01T05:34:23.507Z,1023.3
2022-12-01T05:35:23.502Z,1023.3
2022-12-01T05:36:23.517Z,1023.3
2022-12-01T05:37:23.509Z,1023.3
2022-12-01T05:38:23.519Z,1023.3
2022-12-01T05:39:23.504Z,1023.3
2022-12-01T05:40:23.529Z,1023.3
2022-12-01T05:41:23.509Z,1023.3
2022-12-01T05:42:23.545Z,1023.3
2022-12-01T05:43:28.620Z,1023.3
2022-12-01T05:44:23.510Z,1023.3
2022-12-01T05:45:23.504Z,1023.3
2022-12-01T05:46:23.608Z,1023.3
2022-12-01T05:47:23.505Z,1023.3
2022-12-01T05:48:23.522Z,1023.4
2022-12-01T05:49:23.508Z,1023.3
2022-12-01T05:50:23.512Z,1023.3
2022-12-01T05:51:23.519Z,1023.3
2022-12-01T05:52:23.510Z,1023.3
2022-12-01T05:53:23.515Z,1023.4
2022-12-01T05:54:23.512Z,1023.3
2022-12-01T05:55:23.686Z,1023.4
2022-12-01T05:56:23.515Z,1023.4
2022-12-01T05:57:23.537Z,1023.4
2022-12-01T05:58:23.505Z,1023.4
2022-12-01T05:59:23.524Z,1023.4
2022-12-01T06:00:23.522Z,1023.5
2022-12-01T06:01:23.521Z,1023.4
2022-12-01T06:02:23.614Z,1023.5
2022-12-01T06:03:23.527Z,1023.5
2022-12-01T06:04:23.583Z,1023.5
2022-12-01T06:05:23.535Z,1023.5
2022-12-01T06:06:23.513Z,1023.5
2022-12-01T06:07:23.617Z,1023.5
2022-12-01T06:08:23.544Z,1023.5
2022-12-01T06:09:23.511Z,1023.5
2022-12-01T06:10:23.521Z,1023.5
2022-12-01T06:11:23.545Z,1023.5
2022-12-01T06:12:23.525Z,1023.5
2022-12-01T06:13:23.568Z,1023.5
2022-12-01T06:14:23.554Z,1023.5
2022-12-01T06:15:23.525Z,1023.5
2022-12-01T06:16:23.599Z,1023.5
2022-12-01T06:17:23.540Z,1023.5
2022-12-01T06:18:23.521Z,1023.5
2022-12-01T06:19:23.527Z,1023.5
2022-12-01T06:20:23.523Z,1023.5
2022-12-01T06:21:23.516Z,1023.4
2022-12-01T06:22:23.522Z,1023.4
2022-12-01T06:23:28.920Z,1023.4
2022-12-01T06:24:23.519Z,1023.5
2022-12-01T06:25:23.540Z,1023.5
2022-12-01T06:26:23.546Z,1023.5
2022-12-01T06:27:23.520Z,1023.5
2022-12-01T06:28:23.521Z,1023.5
2022-12-01T06:29:23.549Z,1023.6
2022-12-01T06:30:23.562Z,1023.6
2022-12-01T06:31:23.546Z,1023.5
2022-12-01T06:32:23.513Z,1023.6
2022-12-01T06:33:23.533Z,1023.6
2022-12-01T06:34:23.545Z,1023.6
2022-12-01T06:35:23.530Z,1023.6
2022-12-01T06:36:23.536Z,1023.6
2022-12-01T06:37:23.547Z,1023.6
2022-12-01T06:38:23.550Z,1023.6
2022-12-01T06:39:23.544Z,1023.6
2022-12-01T06:40:23.548Z,1023.6
2022-12-01T06:41:23.552Z,1023.6
2022-12-01T06:42:23.536Z,1023.6
2022-12-01T06:43:23.526Z,1023.6
2022-12-01T06:44:23.584Z,1023.5
2022-12-01T06:45:23.551Z,1023.5
2022-12-01T06:46:23.594Z,1023.5
2022-12-01T06:47:23.523Z,1023.6
2022-12-01T06:48:23.543Z,1023.6
2022-12-01T06:49:23.518Z,1023.6
2022-12-01T06:50:23.548Z,1023.6
2022-12-01T06:51:23.545Z,1023.6
2022-12-01T06:52:23.534Z,1023.6
2022-12-01T06:53:23.533Z,1023.6
2022-12-01T06:54:23.547Z,1023.7
2022-12-01T06:55:23.547Z,1023.6
2022-12-01T06:56:23.544Z,1023.7
2022-12-01T06:57:23.549Z,1023.7
2022-12-01T06:58:23.551Z,1023.6
2022-12-01T06:59:23.534Z,1023.6
2022-12-01T07:00:23.533Z,1023.7
2022-12-01T07:01:23.555Z,1023.7
2022-12-01T07:02:23.563Z,1023.7
2022-12-01T07:03:23.598Z,1023.6
2022-12-01T07:04:23.529Z,1023.7
2022-12-01T07:05:23.531Z,1023.7
2022-12-01T07:06:23.540Z,1023.7
2022-12-01T07:07:23.587Z,1023.7
2022-12-01T07:08:23.521Z,1023.7
2022-12-01T07:09:23.535Z,1023.7
2022-12-01T07:10:23.537Z,1023.7
2022-12-01T07:11:23.553Z,1023.7
2022-12-01T07:12:23.548Z,1023.7
2022-12-01T07:13:24.367Z,1023.8
2022-12-01T07:14:23.529Z,1023.7
2022-12-01T07:15:23.594Z,1023.8
2022-12-01T07:16:23.617Z,1023.7
2022-12-01T07:17:23.531Z,1023.7
2022-12-01T07:18:23.528Z,1023.8
2022-12-01T07:19:23.536Z,1023.7
2022-12-01T07:20:23.558Z,1023.8
2022-12-01T07:21:23.567Z,1023.8
2022-12-01T07:22:26.912Z,1023.8
2022-12-01T07:23:23.550Z,1023.8
2022-12-01T07:24:23.545Z,1023.8
2022-12-01T07:25:23.543Z,1023.9
2022-12-01T07:26:23.548Z,1023.8
2022-12-01T07:27:23.544Z,1023.8
2022-12-01T07:28:23.555Z,1023.9
2022-12-01T07:29:23.553Z,1023.9
2022-12-01T07:30:28.276Z,1023.9
2022-12-01T07:31:23.646Z,1023.9
2022-12-01T07:32:23.539Z,1023.8
2022-12-01T07:34:23.549Z,1023.8
2022-12-01T07:35:23.541Z,1023.9
2022-12-01T07:36:23.534Z,1023.9
2022-12-01T07:37:23.590Z,1023.9
2022-12-01T07:38:23.557Z,1023.9
2022-12-01T07:39:23.560Z,1023.9
2022-12-01T07:40:23.563Z,1023.9
2022-12-01T07:41:23.571Z,1023.8
2022-12-01T07:42:23.560Z,1023.9
2022-12-01T07:43:23.569Z,1023.9
2022-12-01T07:44:23.558Z,1023.9
2022-12-01T07:45:23.545Z,1023.8
2022-12-01T07:46:24.422Z,1023.9
2022-12-01T07:47:23.545Z,1023.9
2022-12-01T07:48:23.562Z,1023.9
2022-12-01T07:49:23.565Z,1023.9
2022-12-01T07:50:23.536Z,1023.8
2022-12-01T07:51:23.536Z,1023.8
2022-12-01T07:52:23.559Z,1023.8
2022-12-01T07:53:23.583Z,1023.8
2022-12-01T07:54:23.568Z,1023.8
2022-12-01T07:55:23.540Z,1023.8
2022-12-01T07:56:23.552Z,1023.7
2022-12-01T07:57:23.546Z,1023.8
2022-12-01T07:58:23.534Z,1023.8
2022-12-01T07:59:23.549Z,1023.8
2022-12-01T08:00:23.547Z,1023.9
2022-12-01T08:01:23.604Z,1023.9
2022-12-01T08:02:23.642Z,1023.9
2022-12-01T08:03:23.582Z,1023.9
2022-12-01T08:04:23.560Z,1023.9
2022-12-01T08:05:23.539Z,1023.9
2022-12-01T08:06:23.565Z,1023.9
2022-12-01T08:07:27.229Z,1023.9
2022-12-01T08:08:23.555Z,1024
2022-12-01T08:09:23.561Z,1024
2022-12-01T08:10:23.563Z,1023.9
2022-12-01T08:11:23.551Z,1023.9
2022-12-01T08:12:23.555Z,1023.9
2022-12-01T08:13:23.546Z,1023.9
2022-12-01T08:14:23.557Z,1023.9
2022-12-01T08:15:23.624Z,1023.9
2022-12-01T08:16:23.562Z,1023.9
2022-12-01T08:17:23.577Z,1023.9
2022-12-01T08:18:23.547Z,1024
2022-12-01T08:19:23.564Z,1023.9
2022-12-01T08:20:24.217Z,1024
2022-12-01T08:21:23.573Z,1024
2022-12-01T08:23:23.568Z,1024
2022-12-01T08:24:23.565Z,1024
2022-12-01T08:25:23.574Z,1024.1
2022-12-01T08:26:23.579Z,1024
2022-12-01T08:27:23.569Z,1024.1
2022-12-01T08:28:23.571Z,1024
2022-12-01T08:29:23.568Z,1024.1
2022-12-01T08:30:23.566Z,1024.1
2022-12-01T08:31:23.715Z,1024.1
2022-12-01T08:32:23.578Z,1024.1
2022-12-01T08:33:23.543Z,1024.1
2022-12-01T08:34:23.554Z,1024.1
2022-12-01T08:35:23.566Z,1024.1
2022-12-01T08:36:23.565Z,1024.1
2022-12-01T08:37:23.550Z,1024.1
2022-12-01T08:38:23.559Z,1024.1
2022-12-01T08:39:23.553Z,1024.1
2022-12-01T08:40:23.565Z,1024.2
2022-12-01T08:41:23.578Z,1024.2
2022-12-01T08:42:23.570Z,1024.2
2022-12-01T08:43:57.291Z,1024.2
2022-12-01T08:44:23.630Z,1024.2
2022-12-01T08:45:23.568Z,1024.2
2022-12-01T08:46:23.579Z,1024.2
2022-12-01T08:47:23.567Z,1024.1
2022-12-01T08:48:23.602Z,1024.1
2022-12-01T08:49:23.587Z,1024.2
2022-12-01T08:50:23.611Z,1024.2
2022-12-01T08:53:23.553Z,1024.2
2022-12-01T08:54:23.560Z,1024.2
2022-12-01T08:55:23.582Z,1024.2
2022-12-01T08:56:23.577Z,1024.2
2022-12-01T08:58:23.561Z,1024.2
2022-12-01T08:59:23.554Z,1024.2
2022-12-01T09:00:23.556Z,1024.1
2022-12-01T09:01:23.640Z,1024.2
2022-12-01T09:02:23.696Z,1024.2
2022-12-01T09:03:23.640Z,1024.2
2022-12-01T09:04:23.569Z,1024.1
2022-12-01T09:05:23.574Z,1024.1
2022-12-01T09:06:23.560Z,1024.1
2022-12-01T09:07:26.404Z,1024.1
2022-12-01T09:08:23.561Z,1024.1
2022-12-01T09:09:23.560Z,1024.2
2022-12-01T09:10:23.584Z,1024.2
2022-12-01T09:11:23.580Z,1024.2
2022-12-01T09:12:23.585Z,1024.2
2022-12-01T09:13:23.579Z,1024.2
2022-12-01T09:14:23.603Z,1024.2
2022-12-01T09:15:23.558Z,1024.2
2022-12-01T09:16:23.613Z,1024.2
2022-12-01T09:17:23.565Z,1024.2
2022-12-01T09:18:23.568Z,1024.2
2022-12-01T09:19:24.921Z,1024.2
2022-12-01T09:20:23.568Z,1024.3
2022-12-01T09:21:23.586Z,1024.2
2022-12-01T09:22:23.581Z,1024.2
2022-12-01T09:23:23.581Z,1024.3
2022-12-01T09:24:23.563Z,1024.2
2022-12-01T09:25:23.565Z,1024.2
2022-12-01T09:26:23.695Z,1024.3
2022-12-01T09:27:23.557Z,1024.3
2022-12-01T09:28:23.573Z,1024.2
2022-12-01T09:29:23.557Z,1024.3
2022-12-01T09:30:23.555Z,1024.3
2022-12-01T09:31:23.819Z,1024.3
2022-12-01T09:32:23.741Z,1024.3
2022-12-01T09:33:23.572Z,1024.3
2022-12-01T09:34:23.560Z,1024.3
2022-12-01T09:35:23.827Z,1024.3
2022-12-01T09:36:23.560Z,1024.3
2022-12-01T09:37:23.581Z,1024.3
2022-12-01T09:38:23.588Z,1024.4
2022-12-01T09:39:23.652Z,1024.3
2022-12-01T09:40:23.562Z,1024.3
2022-12-01T09:41:23.566Z,1024.3
2022-12-01T09:42:23.557Z,1024.4
2022-12-01T09:43:23.572Z,1024.4
2022-12-01T09:44:23.559Z,1024.4
2022-12-01T09:45:23.570Z,1024.4
2022-12-01T09:46:23.639Z,1024.4
2022-12-01T09:47:23.598Z,1024.4
2022-12-01T09:48:23.586Z,1024.4
2022-12-01T09:49:23.587Z,1024.4
2022-12-01T09:50:23.610Z,1024.4
2022-12-01T09:51:23.579Z,1024.3
2022-12-01T09:52:23.584Z,1024.4
2022-12-01T09:54:23.594Z,1024.3
2022-12-01T09:55:23.598Z,1024.3
2022-12-01T09:56:23.582Z,1024.3
2022-12-01T09:57:23.597Z,1024.3
2022-12-01T09:58:23.586Z,1024.4
2022-12-01T09:59:23.597Z,1024.3
2022-12-01T10:00:23.693Z,1024.3
2022-12-01T10:01:27.265Z,1024.3
2022-12-01T10:02:23.624Z,1024.3
2022-12-01T10:03:23.589Z,1024.3
2022-12-01T10:04:23.579Z,1024.3
2022-12-01T10:05:23.657Z,1024.3
2022-12-01T10:06:28.481Z,1024.3
2022-12-01T10:07:23.674Z,1024.3
2022-12-01T10:08:26.963Z,1024.2
2022-12-01T10:09:23.604Z,1024.3
2022-12-01T10:10:23.630Z,1024.2
2022-12-01T10:11:23.590Z,1024.2
2022-12-01T10:12:23.585Z,1024.3
2022-12-01T10:13:23.596Z,1024.3
2022-12-01T10:14:23.590Z,1024.3
2022-12-01T10:15:23.592Z,1024.3
2022-12-01T10:16:23.665Z,1024.2
2022-12-01T10:17:23.585Z,1024.3
2022-12-01T10:18:23.594Z,1024.2
2022-12-01T10:19:23.578Z,1024.3
2022-12-01T10:20:23.675Z,1024.3
2022-12-01T10:22:23.596Z,1024.2
2022-12-01T10:23:23.582Z,1024.2
2022-12-01T10:24:23.601Z,1024.2
2022-12-01T10:25:23.598Z,1024.1
2022-12-01T10:26:23.624Z,1024.1
2022-12-01T10:27:23.598Z,1024.1
2022-12-01T10:28:23.591Z,1024.1
2022-12-01T10:29:23.598Z,1024.1
2022-12-01T10:30:23.696Z,1024.1
2022-12-01T10:31:23.648Z,1024.1
2022-12-01T10:32:23.587Z,1024.1
2022-12-01T10:33:23.603Z,1024.1
2022-12-01T10:34:23.612Z,1024.1
2022-12-01T10:35:23.593Z,1024.1
2022-12-01T10:36:23.597Z,1024.1
2022-12-01T10:37:23.651Z,1024.1
2022-12-01T10:38:23.599Z,1024.1
2022-12-01T10:39:23.600Z,1024.1
2022-12-01T10:40:23.585Z,1024.1
2022-12-01T10:41:23.590Z,1024.1
2022-12-01T10:42:23.593Z,1024.1
2022-12-01T10:43:23.598Z,1024.1
2022-12-01T10:44:23.589Z,1024.1
2022-12-01T10:45:23.586Z,1024.1
2022-12-01T10:46:23.677Z,1024.1
2022-12-01T10:47:23.599Z,1024.1
2022-12-01T10:48:23.596Z,1024.1
2022-12-01T10:49:23.604Z,1024.1
2022-12-01T10:51:23.600Z,1024.1
2022-12-01T10:52:23.628Z,1024.1
2022-12-01T10:53:23.589Z,1024.1
2022-12-01T10:54:23.594Z,1024.1
2022-12-01T10:56:23.600Z,1024.1
2022-12-01T10:57:23.598Z,1024.1
2022-12-01T10:58:23.588Z,1024.1
2022-12-01T10:59:23.596Z,1024.1
2022-12-01T11:00:57.585Z,1024.1
2022-12-01T11:01:23.824Z,1024.1
2022-12-01T11:02:23.837Z,1024.2
2022-12-01T11:03:23.882Z,1024.1
2022-12-01T11:04:23.601Z,1024.1
2022-12-01T11:05:23.607Z,1024.1
2022-12-01T11:06:23.582Z,1024.1
2022-12-01T11:07:23.644Z,1024.1
2022-12-01T11:08:23.600Z,1024.1
2022-12-01T11:09:26.160Z,1024
2022-12-01T11:10:23.588Z,1024
2022-12-01T11:11:23.612Z,1024
2022-12-01T11:12:23.601Z,1024.1
2022-12-01T11:13:23.600Z,1024
2022-12-01T11:14:24.116Z,1024
2022-12-01T11:15:23.603Z,1024.1
2022-12-01T11:16:23.624Z,1024.1
2022-12-01T11:17:23.606Z,1024.1
2022-12-01T11:18:23.612Z,1024.1
2022-12-01T11:19:27.509Z,1024
2022-12-01T11:20:23.670Z,1024.1
2022-12-01T11:21:23.605Z,1024
2022-12-01T11:22:23.621Z,1024
2022-12-01T11:23:23.659Z,1024
2022-12-01T11:24:23.601Z,1024
2022-12-01T11:25:23.603Z,1024
2022-12-01T11:26:23.605Z,1024
2022-12-01T11:27:23.592Z,1024
2022-12-01T11:28:23.600Z,1024
2022-12-01T11:29:23.606Z,1024
2022-12-01T11:30:23.604Z,1023.9
2022-12-01T11:31:24.719Z,1024
2022-12-01T11:32:23.584Z,1024
2022-12-01T11:33:23.589Z,1023.9
2022-12-01T11:34:23.604Z,1023.9
2022-12-01T11:35:23.611Z,1023.9
2022-12-01T11:37:23.594Z,1023.9
2022-12-01T11:38:30.971Z,1023.9
2022-12-01T11:39:23.596Z,1024
2022-12-01T11:40:23.603Z,1023.9
2022-12-01T11:41:23.601Z,1023.9
2022-12-01T11:42:23.595Z,1023.9
2022-12-01T11:43:23.599Z,1023.9
2022-12-01T11:44:51.448Z,1023.9
2022-12-01T11:45:23.594Z,1024
2022-12-01T11:46:23.656Z,1024
2022-12-01T11:47:24.806Z,1023.9
2022-12-01T11:48:23.608Z,1023.9
2022-12-01T11:49:23.600Z,1023.9
2022-12-01T11:50:23.602Z,1023.9
2022-12-01T11:51:23.639Z,1023.9
2022-12-01T11:52:23.604Z,1023.9
2022-12-01T11:53:23.613Z,1023.9
2022-12-01T11:54:23.642Z,1023.9
2022-12-01T11:55:23.603Z,1023.9
2022-12-01T11:56:23.838Z,1023.9
2022-12-01T11:57:34.328Z,1023.9
2022-12-01T11:58:23.679Z,1023.9
2022-12-01T11:59:23.610Z,1023.9
2022-12-01T12:01:23.598Z,1023.9
2022-12-01T12:02:23.684Z,1023.9
2022-12-01T12:03:23.669Z,1023.9
2022-12-01T12:04:23.619Z,1023.9
2022-12-01T12:05:23.623Z,1023.9
2022-12-01T12:06:40.271Z,1023.8
2022-12-01T12:07:23.628Z,1023.8
2022-12-01T12:08:23.608Z,1023.8
2022-12-01T12:09:23.656Z,1023.8
2022-12-01T12:10:23.724Z,1023.8
2022-12-01T12:11:23.618Z,1023.8
2022-12-01T12:12:23.618Z,1023.8
2022-12-01T12:13:23.611Z,1023.8
2022-12-01T12:15:23.619Z,1023.8
2022-12-01T12:16:26.297Z,1023.7
2022-12-01T12:17:23.655Z,1023.7
2022-12-01T12:18:23.605Z,1023.7
2022-12-01T12:19:33.673Z,1023.7
2022-12-01T12:20:23.615Z,1023.7
2022-12-01T12:21:23.618Z,1023.8
2022-12-01T12:22:23.619Z,1023.7
2022-12-01T12:23:23.615Z,1023.7
2022-12-01T12:24:23.622Z,1023.7
2022-12-01T12:25:23.652Z,1023.7
2022-12-01T12:26:23.614Z,1023.7
2022-12-01T12:27:23.618Z,1023.7
2022-12-01T12:28:23.617Z,1023.7
2022-12-01T12:29:23.610Z,1023.7
2022-12-01T12:30:23.633Z,1023.8
2022-12-01T12:31:23.650Z,1023.7
2022-12-01T12:32:23.624Z,1023.7
2022-12-01T12:33:23.611Z,1023.7
2022-12-01T12:34:23.637Z,1023.7
2022-12-01T12:35:23.619Z,1023.7
2022-12-01T12:36:23.616Z,1023.7
2022-12-01T12:37:23.617Z,1023.7
2022-12-01T12:38:23.605Z,1023.7
2022-12-01T12:39:23.608Z,1023.6
2022-12-01T12:40:23.623Z,1023.7
2022-12-01T12:41:23.619Z,1023.6
2022-12-01T12:42:23.604Z,1023.7
2022-12-01T12:43:23.646Z,1023.6
2022-12-01T12:44:23.637Z,1023.6
2022-12-01T12:45:23.621Z,1023.6
2022-12-01T12:46:23.706Z,1023.6
2022-12-01T12:47:23.629Z,1023.6
2022-12-01T12:48:23.629Z,1023.6
2022-12-01T12:49:23.611Z,1023.6
2022-12-01T12:50:23.606Z,1023.5
2022-12-01T12:51:23.630Z,1023.6
2022-12-01T12:52:23.622Z,1023.5
2022-12-01T12:53:23.626Z,1023.5
2022-12-01T12:54:23.811Z,1023.5
2022-12-01T12:55:23.636Z,1023.5
2022-12-01T12:56:23.652Z,1023.5